Time;durP1;ratioP1;P1;durP2;ratioP2;P2;SDS_P1;SDS_P2;PMS_P1;PMS_P2;Temp;Humidity;BMP_temperature;BMP_pressure;BME280_temperature;BME280_humidity;BME280_pressure;Samples;Min_cycle;Max_cycle;Signal;HPM_P1;HPM_P2
2023/05/04 00:01:14;;;;;;;11.82;7.18;;;5.70;99.90;;;;;;5097633;28;20418;-36
2023/05/04 00:03:40;;;;;;;12.57;7.80;;;5.70;99.90;;;;;;5098590;28;20040;-35
2023/05/04 00:06:06;;;;;;;11.10;7.97;;;5.60;99.90;;;;;;5097814;28;20519;-35
2023/05/04 00:08:32;;;;;;;10.60;8.27;;;5.70;99.90;;;;;;5081258;28;20061;-33
2023/05/04 00:10:58;;;;;;;10.48;8.13;;;5.60;99.90;;;;;;5097747;28;20040;-38
2023/05/04 00:13:23;;;;;;;13.18;8.13;;;5.60;99.90;;;;;;5079657;28;20104;-37
2023/05/04 00:15:49;;;;;;;13.95;9.23;;;5.60;99.90;;;;;;5097239;28;20047;-33
2023/05/04 00:18:15;;;;;;;15.73;9.13;;;5.60;99.90;;;;;;5098049;28;20053;-34
2023/05/04 00:20:40;;;;;;;12.55;8.13;;;5.50;99.90;;;;;;5096807;28;20154;-36
2023/05/04 00:23:06;;;;;;;11.85;8.32;;;5.50;99.90;;;;;;5098302;28;20402;-38
2023/05/04 00:25:32;;;;;;;12.20;8.35;;;5.50;99.90;;;;;;5098103;28;20490;-33
2023/05/04 00:27:57;;;;;;;12.15;8.55;;;5.50;99.90;;;;;;5097872;28;20051;-33
2023/05/04 00:30:23;;;;;;;12.48;7.80;;;5.50;99.90;;;;;;5096979;28;20097;-39
2023/05/04 00:32:49;;;;;;;11.52;7.68;;;5.50;99.90;;;;;;5098107;28;20128;-34
2023/05/04 00:35:15;;;;;;;12.40;8.98;;;5.40;99.90;;;;;;5097951;28;20055;-36
2023/05/04 00:37:42;;;;;;;15.57;8.77;;;5.40;99.90;;;;;;5097032;28;20043;-35
2023/05/04 00:40:08;;;;;;;13.65;9.15;;;5.40;99.90;;;;;;5097241;28;20906;-36
2023/05/04 00:42:34;;;;;;;11.65;8.65;;;5.40;99.90;;;;;;5097464;28;20063;-33
2023/05/04 00:45:00;;;;;;;15.80;8.32;;;5.40;99.90;;;;;;5096949;28;20058;-35
2023/05/04 00:47:26;;;;;;;12.98;8.32;;;5.40;99.90;;;;;;5084006;28;20040;-35
2023/05/04 00:49:52;;;;;;;17.00;9.10;;;5.40;99.90;;;;;;5097002;28;20047;-35
2023/05/04 00:52:19;;;;;;;12.48;7.82;;;5.30;99.90;;;;;;5096778;28;20469;-35
2023/05/04 00:54:46;;;;;;;12.23;7.93;;;5.30;99.90;;;;;;5097147;28;20309;-34
2023/05/04 00:57:12;;;;;;;13.48;7.95;;;5.30;99.90;;;;;;5096532;28;20051;-37
2023/05/04 00:59:38;;;;;;;11.27;8.13;;;5.30;99.90;;;;;;5096207;28;20046;-35
2023/05/04 01:02:04;;;;;;;15.68;8.27;;;5.30;99.90;;;;;;5097628;28;20051;-34
2023/05/04 01:04:30;;;;;;;13.75;8.68;;;5.30;99.90;;;;;;5095547;28;20401;-38
2023/05/04 01:07:27;;;;;;;13.45;8.15;;;5.30;99.90;;;;;;5085116;28;20134;-36
2023/05/04 01:10:01;;;;;;;16.63;9.18;;;5.30;99.90;;;;;;5096767;28;20501;-34
2023/05/04 01:12:39;;;;;;;19.08;9.10;;;5.20;99.90;;;;;;5097931;28;20090;-34
2023/05/04 01:15:07;;;;;;;14.77;8.27;;;5.20;99.90;;;;;;5096346;28;20114;-34
2023/05/04 01:17:33;;;;;;;12.90;8.85;;;5.20;99.90;;;;;;5097015;28;20324;-37
2023/05/04 01:19:59;;;;;;;15.60;8.18;;;5.20;99.90;;;;;;5096229;28;20585;-38
2023/05/04 01:22:25;;;;;;;16.67;9.15;;;5.20;99.90;;;;;;5096816;28;20055;-34
2023/05/04 01:24:51;;;;;;;13.27;8.55;;;5.20;99.90;;;;;;5087535;28;20406;-36
2023/05/04 01:27:24;;;;;;;14.02;8.88;;;5.20;99.90;;;;;;5092091;28;20047;-37
2023/05/04 01:30:01;;;;;;;16.25;9.32;;;5.20;99.90;;;;;;5112127;27;20055;-37
2023/05/04 01:32:29;;;;;;;14.32;7.90;;;5.20;99.90;;;;;;5096531;28;20052;-35
2023/05/04 01:34:56;;;;;;;14.57;8.32;;;5.20;99.90;;;;;;5095415;28;20438;-36
2023/05/04 01:37:22;;;;;;;14.63;8.30;;;5.20;99.90;;;;;;5095265;28;20512;-34
2023/05/04 01:39:47;;;;;;;13.85;8.48;;;5.20;99.90;;;;;;5095636;28;20561;-35
2023/05/04 01:42:13;;;;;;;12.38;7.50;;;5.20;99.90;;;;;;5096540;28;20070;-38
2023/05/04 01:44:39;;;;;;;15.68;8.00;;;5.20;99.90;;;;;;5096891;28;20459;-34
2023/05/04 01:47:05;;;;;;;17.30;7.75;;;5.20;99.90;;;;;;5096304;28;20055;-36
2023/05/04 01:49:31;;;;;;;11.23;7.65;;;5.20;99.90;;;;;;5095506;28;20425;-35
2023/05/04 01:51:57;;;;;;;11.75;7.30;;;5.20;99.90;;;;;;5095971;28;20349;-34
2023/05/04 01:54:23;;;;;;;17.00;8.98;;;5.20;99.90;;;;;;5078339;28;20052;-37
2023/05/04 01:56:49;;;;;;;14.50;8.57;;;5.20;99.90;;;;;;5095926;28;20063;-34
2023/05/04 01:59:15;;;;;;;22.23;8.77;;;5.20;99.90;;;;;;5096307;28;20050;-37
2023/05/04 02:01:40;;;;;;;13.43;7.93;;;5.20;99.90;;;;;;5084998;28;20471;-36
2023/05/04 02:04:06;;;;;;;13.20;7.70;;;5.20;99.90;;;;;;5085787;28;20047;-38
2023/05/04 02:06:32;;;;;;;15.65;9.10;;;5.20;99.90;;;;;;5093678;28;20047;-33
2023/05/04 02:08:58;;;;;;;13.13;8.27;;;5.20;99.90;;;;;;5096345;28;20409;-35
2023/05/04 02:11:24;;;;;;;12.52;8.25;;;5.10;99.90;;;;;;5095379;28;20047;-34
2023/05/04 02:13:50;;;;;;;14.27;8.70;;;5.10;99.90;;;;;;5096015;28;20047;-36
2023/05/04 02:16:16;;;;;;;15.48;7.93;;;5.20;99.90;;;;;;5094907;28;20452;-36
2023/05/04 02:18:41;;;;;;;12.27;7.82;;;5.20;99.90;;;;;;5095117;28;20040;-34
2023/05/04 02:21:07;;;;;;;10.93;8.02;;;5.10;99.90;;;;;;5095316;28;20051;-35
2023/05/04 02:23:33;;;;;;;14.10;8.18;;;5.20;99.90;;;;;;5096454;28;20657;-36
2023/05/04 02:25:58;;;;;;;12.98;8.35;;;5.20;99.90;;;;;;5095752;28;20501;-38
2023/05/04 02:28:24;;;;;;;12.68;8.70;;;5.20;99.90;;;;;;5096696;28;20050;-35
2023/05/04 02:30:50;;;;;;;12.10;8.15;;;5.10;99.90;;;;;;5095428;28;20096;-37
2023/05/04 02:33:15;;;;;;;15.52;8.73;;;5.10;99.90;;;;;;5095707;28;20129;-37
2023/05/04 02:35:41;;;;;;;13.45;7.32;;;5.20;99.90;;;;;;5076697;28;20044;-34
2023/05/04 02:38:07;;;;;;;13.45;8.65;;;5.10;99.90;;;;;;5095158;28;20047;-35
2023/05/04 02:40:32;;;;;;;16.17;8.65;;;5.10;99.90;;;;;;5095170;28;20131;-36
2023/05/04 02:42:58;;;;;;;13.40;8.13;;;5.10;99.90;;;;;;5096009;28;20044;-35
2023/05/04 02:45:24;;;;;;;12.77;8.20;;;5.10;99.90;;;;;;5110841;27;20386;-38
2023/05/04 02:47:49;;;;;;;13.70;8.65;;;5.20;99.90;;;;;;5081455;28;20073;-34
2023/05/04 02:50:15;;;;;;;17.95;8.90;;;5.20;99.90;;;;;;5098910;28;20054;-34
2023/05/04 02:52:41;;;;;;;16.10;9.43;;;5.20;99.90;;;;;;5099059;28;20413;-34
2023/05/04 02:55:07;;;;;;;14.98;8.48;;;5.20;99.90;;;;;;5099163;28;20075;-38
2023/05/04 02:57:32;;;;;;;10.60;7.75;;;5.20;99.90;;;;;;5114999;27;20489;-34
2023/05/04 02:59:58;;;;;;;12.93;8.30;;;5.20;99.90;;;;;;5099019;28;20431;-38
2023/05/04 03:02:24;;;;;;;15.10;9.07;;;5.20;99.90;;;;;;5081000;28;20505;-39
2023/05/04 03:04:49;;;;;;;13.52;9.02;;;5.20;99.90;;;;;;5099158;28;20043;-35
2023/05/04 03:07:15;;;;;;;15.57;8.93;;;5.20;99.90;;;;;;5099426;28;20051;-35
2023/05/04 03:09:41;;;;;;;12.38;8.70;;;5.30;99.90;;;;;;5114463;27;20059;-35
2023/05/04 03:12:06;;;;;;;13.70;7.97;;;5.20;99.90;;;;;;5099699;28;20047;-37
2023/05/04 03:14:32;;;;;;;13.32;8.52;;;5.20;99.90;;;;;;5099563;28;20086;-33
2023/05/04 03:16:58;;;;;;;14.00;8.15;;;5.30;99.90;;;;;;5099061;28;20348;-35
2023/05/04 03:19:23;;;;;;;18.10;10.00;;;5.30;99.90;;;;;;5098986;28;20094;-38
2023/05/04 03:21:49;;;;;;;15.02;9.10;;;5.30;99.90;;;;;;5099234;28;20158;-34
2023/05/04 03:24:16;;;;;;;15.23;10.07;;;5.30;99.90;;;;;;5098891;28;20112;-36
2023/05/04 03:26:42;;;;;;;14.07;9.25;;;5.30;99.90;;;;;;5098596;28;20054;-33
2023/05/04 03:29:09;;;;;;;13.02;8.50;;;5.30;99.90;;;;;;5079570;28;20059;-37
2023/05/04 03:31:35;;;;;;;13.52;9.13;;;5.30;99.90;;;;;;5098498;28;20453;-36
2023/05/04 03:34:01;;;;;;;13.38;8.68;;;5.30;99.90;;;;;;5098803;28;20084;-37
2023/05/04 03:36:26;;;;;;;16.42;9.90;;;5.30;99.90;;;;;;5097713;28;20101;-34
2023/05/04 03:38:52;;;;;;;14.70;8.95;;;5.30;99.90;;;;;;5098756;28;20050;-34
2023/05/04 03:41:18;;;;;;;15.90;9.55;;;5.30;99.90;;;;;;5097961;28;20047;-36
2023/05/04 03:43:43;;;;;;;15.45;8.75;;;5.30;99.90;;;;;;5098866;28;20039;-38
2023/05/04 03:46:10;;;;;;;14.10;8.85;;;5.30;99.90;;;;;;5098622;28;20131;-36
2023/05/04 03:48:35;;;;;;;14.07;9.13;;;5.30;99.90;;;;;;5099142;28;20055;-37
2023/05/04 03:51:02;;;;;;;12.55;9.02;;;5.30;99.90;;;;;;5098534;28;20051;-38
2023/05/04 03:53:27;;;;;;;14.63;9.70;;;5.30;99.90;;;;;;5098390;28;20043;-33
2023/05/04 03:55:53;;;;;;;14.20;8.82;;;5.30;99.90;;;;;;5097457;28;20047;-37
2023/05/04 03:58:19;;;;;;;14.93;10.00;;;5.30;99.90;;;;;;5097689;28;20040;-37
2023/05/04 04:00:44;;;;;;;12.88;10.10;;;5.30;99.90;;;;;;5097472;28;20063;-36
2023/05/04 04:03:10;;;;;;;21.35;9.95;;;5.30;99.90;;;;;;5096274;28;20043;-38
2023/05/04 04:05:36;;;;;;;13.90;9.82;;;5.30;99.90;;;;;;5096382;28;20213;-36
2023/05/04 04:08:01;;;;;;;18.50;10.00;;;5.30;99.90;;;;;;5097519;28;20123;-33
2023/05/04 04:10:27;;;;;;;12.95;9.68;;;5.30;99.90;;;;;;5097212;28;20044;-35
2023/05/04 04:12:53;;;;;;;16.85;10.63;;;5.30;99.90;;;;;;5097196;28;20086;-34
2023/05/04 04:15:18;;;;;;;13.48;9.43;;;5.30;99.90;;;;;;5096948;28;20048;-37
2023/05/04 04:17:44;;;;;;;13.70;10.05;;;5.30;99.90;;;;;;5097801;28;20533;-36
2023/05/04 04:20:11;;;;;;;13.48;9.15;;;5.30;99.90;;;;;;5088009;28;20499;-38
2023/05/04 04:22:37;;;;;;;14.40;9.32;;;5.30;99.90;;;;;;5098172;28;20421;-33
2023/05/04 04:25:03;;;;;;;15.77;10.75;;;5.40;99.90;;;;;;5097938;28;20466;-35
2023/05/04 04:27:29;;;;;;;16.27;9.65;;;5.40;99.90;;;;;;5097339;28;20109;-39
2023/05/04 04:29:55;;;;;;;15.02;9.80;;;5.40;99.90;;;;;;5097773;28;20512;-33
2023/05/04 04:32:21;;;;;;;14.45;9.27;;;5.40;99.90;;;;;;5097471;28;20474;-36
2023/05/04 04:34:47;;;;;;;16.98;10.30;;;5.50;99.90;;;;;;5097657;28;20140;-36
2023/05/04 04:37:13;;;;;;;13.95;9.82;;;5.50;99.90;;;;;;5096580;28;20047;-36
2023/05/04 04:39:38;;;;;;;14.75;9.95;;;5.50;99.90;;;;;;5097300;28;20156;-36
2023/05/04 04:42:04;;;;;;;21.13;10.02;;;5.60;99.90;;;;;;5097626;28;20504;-36
2023/05/04 04:44:30;;;;;;;16.13;10.55;;;5.60;99.90;;;;;;5090700;28;20039;-38
2023/05/04 04:46:55;;;;;;;14.05;9.93;;;5.70;99.90;;;;;;5095951;28;20051;-35
2023/05/04 04:49:21;;;;;;;17.15;10.57;;;5.70;99.90;;;;;;5097430;28;20488;-33
2023/05/04 04:51:47;;;;;;;15.50;9.40;;;5.80;99.90;;;;;;5096991;28;20050;-36
2023/05/04 04:54:13;;;;;;;13.55;9.68;;;5.80;99.90;;;;;;5097620;28;20081;-33
2023/05/04 04:56:40;;;;;;;16.15;10.60;;;5.90;99.90;;;;;;5091958;28;20489;-36
2023/05/04 04:59:06;;;;;;;17.00;10.32;;;5.90;99.90;;;;;;5096546;28;20052;-39
2023/05/04 05:01:32;;;;;;;12.70;9.60;;;6.00;99.90;;;;;;5097391;28;20043;-35
2023/05/04 05:03:58;;;;;;;15.68;10.52;;;6.10;99.90;;;;;;5097489;28;20043;-35
2023/05/04 05:06:24;;;;;;;11.85;9.63;;;6.10;99.90;;;;;;5112013;27;20165;-38
2023/05/04 05:08:50;;;;;;;17.88;10.65;;;6.20;99.90;;;;;;5085630;28;20043;-39
2023/05/04 05:11:16;;;;;;;12.23;9.43;;;6.30;99.90;;;;;;5095769;28;20562;-36
2023/05/04 05:13:42;;;;;;;13.38;9.38;;;6.40;99.90;;;;;;5097195;28;20040;-34
2023/05/04 05:16:07;;;;;;;14.43;9.98;;;6.50;99.90;;;;;;5096149;28;20047;-39
2023/05/04 05:18:33;;;;;;;14.77;9.90;;;6.60;99.90;;;;;;5097429;28;20055;-34
2023/05/04 05:20:59;;;;;;;16.73;9.95;;;6.80;99.90;;;;;;5096486;28;20609;-40
2023/05/04 05:23:25;;;;;;;16.95;9.70;;;7.00;99.90;;;;;;5097253;28;20062;-38
2023/05/04 05:25:52;;;;;;;13.73;10.50;;;7.20;99.90;;;;;;5096049;28;20043;-35
2023/05/04 05:28:17;;;;;;;17.40;9.93;;;7.50;99.90;;;;;;5095965;28;20044;-33
2023/05/04 05:30:43;;;;;;;18.63;10.45;;;7.70;99.90;;;;;;5096019;28;20055;-38
2023/05/04 05:33:09;;;;;;;16.65;10.88;;;8.00;99.90;;;;;;5096726;28;20061;-37
2023/05/04 05:35:35;;;;;;;14.20;9.82;;;8.20;99.90;;;;;;5095819;28;20572;-36
2023/05/04 05:38:01;;;;;;;13.73;9.95;;;8.50;99.90;;;;;;5097056;28;20046;-36
2023/05/04 05:40:27;;;;;;;15.40;10.20;;;8.80;99.90;;;;;;5091215;28;20135;-34
2023/05/04 05:42:53;;;;;;;14.20;9.35;;;9.00;99.90;;;;;;5077455;28;20086;-37
2023/05/04 05:45:18;;;;;;;17.02;9.05;;;9.20;99.90;;;;;;5095908;28;20407;-38
2023/05/04 05:47:44;;;;;;;13.93;8.80;;;9.40;99.90;;;;;;5096172;28;20090;-36
2023/05/04 05:50:12;;;;;;;15.35;9.75;;;9.70;99.90;;;;;;5095393;28;20047;-37
2023/05/04 05:52:38;;;;;;;15.32;9.15;;;9.90;99.90;;;;;;5095837;28;20134;-37
2023/05/04 05:55:04;;;;;;;11.07;8.38;;;9.90;99.90;;;;;;5095821;28;20058;-40
2023/05/04 05:57:30;;;;;;;13.15;8.77;;;9.80;99.90;;;;;;5087159;28;20055;-36
2023/05/04 05:59:56;;;;;;;12.20;8.75;;;9.70;99.90;;;;;;5096073;28;20211;-35
2023/05/04 06:02:22;;;;;;;12.10;9.63;;;9.60;99.90;;;;;;5096559;28;20425;-35
2023/05/04 06:04:48;;;;;;;17.05;10.15;;;9.70;99.90;;;;;;5096273;28;20044;-36
2023/05/04 06:07:14;;;;;;;14.95;9.40;;;9.60;99.90;;;;;;5082604;28;20441;-38
2023/05/04 06:09:39;;;;;;;17.35;9.45;;;9.60;99.90;;;;;;5089078;28;20143;-38
2023/05/04 06:12:11;;;;;;;16.77;9.32;;;9.40;99.90;;;;;;5088861;28;20083;-38
2023/05/04 06:14:37;;;;;;;10.73;8.45;;;9.40;99.90;;;;;;5094066;28;20136;-40
2023/05/04 06:17:02;;;;;;;19.00;9.25;;;9.40;99.90;;;;;;5094880;28;20162;-34
2023/05/04 06:19:28;;;;;;;13.82;9.13;;;9.40;99.90;;;;;;5095327;28;20092;-37
2023/05/04 06:21:54;;;;;;;12.75;9.38;;;9.40;99.90;;;;;;5083182;28;20047;-39
2023/05/04 06:24:21;;;;;;;13.35;9.15;;;9.60;99.90;;;;;;5101606;27;20500;-41
2023/05/04 06:26:47;;;;;;;14.00;9.25;;;9.70;99.90;;;;;;5101532;27;20154;-35
2023/05/04 06:29:12;;;;;;;12.07;8.88;;;9.80;99.90;;;;;;5101217;28;20083;-35
2023/05/04 06:31:38;;;;;;;18.02;9.93;;;10.10;99.90;;;;;;5101733;28;20051;-34
2023/05/04 06:34:04;;;;;;;13.65;9.02;;;10.30;99.90;;;;;;5102434;28;20415;-35
2023/05/04 06:36:30;;;;;;;14.52;9.20;;;10.60;99.90;;;;;;5117254;27;20544;-39
2023/05/04 06:38:57;;;;;;;13.70;9.07;;;10.90;99.90;;;;;;5102245;28;20079;-36
2023/05/04 06:41:23;;;;;;;14.55;8.93;;;11.20;99.90;;;;;;5102641;28;20031;-36
2023/05/04 06:43:49;;;;;;;14.15;9.30;;;11.40;99.90;;;;;;5117443;27;20044;-35
2023/05/04 06:46:15;;;;;;;17.40;9.30;;;11.60;99.90;;;;;;5101774;28;20147;-37
2023/05/04 06:48:41;;;;;;;17.33;9.30;;;11.80;99.90;;;;;;5101793;28;20345;-36
2023/05/04 06:51:07;;;;;;;12.65;8.85;;;12.00;99.90;;;;;;5101440;27;20393;-38
2023/05/04 06:53:32;;;;;;;16.45;9.70;;;12.20;99.90;;;;;;5101346;28;20043;-34
2023/05/04 06:55:58;;;;;;;16.02;8.35;;;12.50;99.90;;;;;;5101342;28;20104;-37
2023/05/04 06:58:24;;;;;;;14.98;8.88;;;12.70;99.90;;;;;;5101294;28;20051;-37
2023/05/04 07:00:51;;;;;;;10.75;8.10;;;12.60;99.90;;;;;;5086958;28;20500;-37
2023/05/04 07:03:17;;;;;;;14.77;9.05;;;12.60;99.90;;;;;;5087561;28;20078;-35
2023/05/04 07:05:47;;;;;;;12.63;8.95;;;12.50;99.90;;;;;;5090182;28;20429;-35
2023/05/04 07:08:13;;;;;;;15.80;8.40;;;12.40;99.90;;;;;;5089065;28;20420;-38
2023/05/04 07:10:38;;;;;;;11.60;8.43;;;12.30;99.90;;;;;;5080745;28;20396;-37
2023/05/04 07:13:05;;;;;;;10.93;7.70;;;12.40;99.90;;;;;;5066309;28;20054;-38
2023/05/04 07:15:32;;;;;;;13.68;8.68;;;12.40;99.90;;;;;;5083465;27;20418;-39
2023/05/04 07:17:58;;;;;;;12.48;9.00;;;12.50;99.90;;;;;;5084736;27;20436;-35
2023/05/04 07:20:24;;;;;;;14.50;8.85;;;12.60;99.90;;;;;;5080599;28;20047;-41
2023/05/04 07:22:55;;;;;;;13.77;8.95;;;12.80;99.90;;;;;;5082718;28;20442;-37
2023/05/04 07:25:25;;;;;;;12.25;8.30;;;12.90;99.90;;;;;;5087984;28;20561;-36
2023/05/04 07:27:52;;;;;;;14.52;8.07;;;12.90;99.90;;;;;;5085652;28;20052;-37
2023/05/04 07:30:18;;;;;;;15.65;8.95;;;12.70;99.90;;;;;;5100024;27;20043;-34
2023/05/04 07:32:44;;;;;;;15.02;8.85;;;12.60;99.90;;;;;;5098533;28;20144;-37
2023/05/04 07:35:10;;;;;;;10.60;8.43;;;12.40;99.90;;;;;;5097338;28;20794;-40
2023/05/04 07:37:35;;;;;;;12.18;8.82;;;12.30;99.90;;;;;;5098995;28;20580;-38
2023/05/04 07:40:04;;;;;;;12.40;8.57;;;12.30;99.90;;;;;;5097895;28;20079;-36
2023/05/04 07:42:30;;;;;;;13.80;8.90;;;12.30;99.90;;;;;;5090323;28;20051;-37
2023/05/04 07:44:56;;;;;;;12.95;8.25;;;12.40;99.90;;;;;;5097336;28;20517;-37
2023/05/04 07:47:22;;;;;;;13.60;8.20;;;12.50;99.90;;;;;;5098144;28;20053;-36
2023/05/04 07:49:48;;;;;;;10.45;8.13;;;12.50;99.90;;;;;;5096966;28;20160;-36
2023/05/04 07:52:13;;;;;;;14.68;8.18;;;12.50;99.90;;;;;;5097765;28;20043;-37
2023/05/04 07:54:39;;;;;;;10.15;8.27;;;12.50;99.90;;;;;;5097435;28;20051;-34
2023/05/04 07:57:05;;;;;;;11.35;7.97;;;12.50;99.90;;;;;;5112510;27;20481;-38
2023/05/04 07:59:30;;;;;;;12.38;8.52;;;12.60;99.90;;;;;;5096221;28;20051;-37
2023/05/04 08:01:56;;;;;;;13.18;8.63;;;12.60;99.90;;;;;;5097411;28;20043;-38
2023/05/04 08:04:22;;;;;;;11.55;7.97;;;12.60;99.90;;;;;;5097574;28;20039;-39
2023/05/04 08:06:48;;;;;;;11.65;7.50;;;12.60;99.90;;;;;;5096684;28;20123;-35
2023/05/04 08:09:18;;;;;;;14.63;8.70;;;12.60;99.90;;;;;;5096563;28;20051;-36
2023/05/04 08:11:45;;;;;;;12.60;8.52;;;12.70;99.90;;;;;;5097178;28;20226;-37
2023/05/04 08:14:10;;;;;;;14.55;8.65;;;12.80;99.90;;;;;;5096500;28;20039;-37
2023/05/04 08:16:38;;;;;;;11.77;7.90;;;13.00;99.90;;;;;;5095821;28;20465;-42
2023/05/04 08:19:04;;;;;;;12.63;8.27;;;13.20;99.90;;;;;;5096567;28;20066;-37
2023/05/04 08:21:30;;;;;;;14.43;7.90;;;13.40;99.90;;;;;;5096187;28;20044;-40
2023/05/04 08:23:55;;;;;;;12.95;8.55;;;13.70;99.90;;;;;;5097132;28;20056;-36
2023/05/04 08:26:22;;;;;;;13.40;8.73;;;13.70;99.90;;;;;;5096489;28;20042;-38
2023/05/04 08:28:48;;;;;;;11.98;7.50;;;13.80;99.90;;;;;;5077535;28;20055;-38
2023/05/04 08:31:14;;;;;;;10.48;6.90;;;13.80;99.90;;;;;;5096952;28;20044;-38
2023/05/04 08:33:40;;;;;;;12.65;7.13;;;13.80;99.90;;;;;;5096517;28;20056;-37
2023/05/04 08:36:08;;;;;;;11.02;7.35;;;14.00;99.90;;;;;;5077605;28;20060;-39
2023/05/04 08:38:33;;;;;;;12.75;7.20;;;14.10;99.90;;;;;;5096601;28;20296;-38
2023/05/04 08:41:06;;;;;;;11.57;7.07;;;14.00;99.90;;;;;;5095884;28;20474;-41
2023/05/04 08:43:35;;;;;;;9.82;7.45;;;14.20;99.90;;;;;;5095852;28;20048;-37
2023/05/04 08:46:02;;;;;;;11.45;7.70;;;14.40;99.90;;;;;;5096393;28;20046;-36
2023/05/04 08:48:30;;;;;;;10.07;6.95;;;14.40;99.90;;;;;;5096944;28;20058;-39
2023/05/04 08:50:57;;;;;;;13.27;7.30;;;14.40;99.90;;;;;;5096790;28;20047;-35
2023/05/04 08:53:24;;;;;;;16.90;7.90;;;14.50;99.90;;;;;;5096116;28;20788;-38
2023/05/04 08:55:51;;;;;;;12.15;8.43;;;14.50;99.90;;;;;;5095719;28;20036;-35
2023/05/04 08:58:20;;;;;;;9.68;7.03;;;14.50;99.90;;;;;;5079021;28;20379;-38
2023/05/04 09:00:46;;;;;;;11.05;6.80;;;14.40;99.90;;;;;;5095670;28;20063;-37
2023/05/04 09:03:12;;;;;;;11.35;7.38;;;14.30;99.90;;;;;;5078245;28;20549;-39
2023/05/04 09:05:41;;;;;;;10.10;7.22;;;14.30;99.90;;;;;;5077874;28;20446;-35
2023/05/04 09:08:07;;;;;;;9.65;6.78;;;14.30;99.90;;;;;;5097012;28;20075;-38
2023/05/04 09:10:33;;;;;;;8.88;6.85;;;14.40;99.90;;;;;;5096386;28;20481;-37
2023/05/04 09:12:59;;;;;;;12.32;7.78;;;14.50;99.90;;;;;;5096935;28;20143;-42
2023/05/04 09:15:25;;;;;;;12.07;7.32;;;14.50;99.90;;;;;;5096540;28;20048;-40
2023/05/04 09:18:00;;;;;;;14.27;7.78;;;14.60;99.90;;;;;;5111969;27;20162;-39
2023/05/04 09:20:26;;;;;;;16.27;7.53;;;14.70;99.90;;;;;;5095793;28;20048;-38
2023/05/04 09:23:08;;;;;;;9.52;6.65;;;15.00;99.90;;;;;;5089212;28;20055;-36
2023/05/04 09:25:48;;;;;;;11.10;7.70;;;15.00;99.90;;;;;;5090576;28;20129;-39
2023/05/04 09:28:15;;;;;;;9.85;7.03;;;15.10;99.90;;;;;;5111163;27;20489;-37
2023/05/04 09:30:41;;;;;;;10.70;6.80;;;15.10;99.90;;;;;;5096017;28;20137;-38
2023/05/04 09:33:09;;;;;;;10.43;6.70;;;15.10;99.90;;;;;;5096990;28;20055;-35
2023/05/04 09:35:39;;;;;;;10.27;7.10;;;15.10;99.90;;;;;;5096239;28;20048;-39
2023/05/04 09:38:06;;;;;;;11.80;7.57;;;15.20;99.90;;;;;;5096806;28;20047;-38
2023/05/04 09:40:40;;;;;;;12.13;7.82;;;15.30;99.90;;;;;;5096219;28;20055;-35
2023/05/04 09:43:09;;;;;;;12.60;7.72;;;15.30;99.90;;;;;;5096994;28;20043;-36
2023/05/04 09:45:42;;;;;;;10.95;6.75;;;15.20;99.90;;;;;;5096553;28;20150;-38
2023/05/04 09:48:18;;;;;;;12.07;6.72;;;15.30;99.90;;;;;;5096867;28;20470;-35
2023/05/04 09:51:11;;;;;;;14.13;7.22;;;15.30;99.90;;;;;;5096249;28;20074;-37
2023/05/04 09:53:39;;;;;;;10.63;6.13;;;15.50;99.90;;;;;;5092567;28;20144;-37
2023/05/04 09:56:13;;;;;;;8.82;6.75;;;15.70;99.90;;;;;;5096335;28;20046;-39
2023/05/04 09:58:39;;;;;;;10.82;7.30;;;15.80;99.90;;;;;;5095738;28;20054;-36
2023/05/04 10:01:05;;;;;;;9.88;7.03;;;15.90;99.90;;;;;;5096817;28;20652;-40
2023/05/04 10:03:32;;;;;;;12.27;6.32;;;16.00;99.90;;;;;;5082645;28;20125;-39
2023/05/04 10:05:59;;;;;;;9.82;6.38;;;16.00;99.90;;;;;;5078058;28;20098;-36
2023/05/04 10:08:26;;;;;;;15.20;6.53;;;16.20;99.90;;;;;;5097419;28;20418;-40
2023/05/04 10:10:52;;;;;;;10.32;6.28;;;16.20;99.90;;;;;;5096106;28;20060;-37
2023/05/04 10:13:18;;;;;;;8.20;5.85;;;16.30;99.90;;;;;;5096291;28;20057;-35
2023/05/04 10:16:18;;;;;;;11.68;6.90;;;16.20;99.90;;;;;;5095473;28;20130;-37
2023/05/04 10:19:10;;;;;;;10.05;6.70;;;16.30;99.90;;;;;;5095835;28;20101;-38
2023/05/04 10:22:09;;;;;;;10.70;6.50;;;16.30;99.90;;;;;;5095038;28;20051;-42
2023/05/04 10:24:50;;;;;;;8.48;5.93;;;16.40;99.90;;;;;;5096425;28;20082;-37
2023/05/04 10:27:32;;;;;;;11.98;5.80;;;16.50;99.90;;;;;;5095819;28;20126;-36
2023/05/04 10:30:00;;;;;;;10.13;6.60;;;16.50;99.90;;;;;;5095555;28;20077;-37
2023/05/04 10:32:26;;;;;;;11.85;6.80;;;16.60;99.90;;;;;;5077918;28;20456;-38
2023/05/04 10:35:04;;;;;;;9.73;6.40;;;16.70;99.90;;;;;;5095125;28;20052;-36
2023/05/04 10:37:30;;;;;;;9.80;5.95;;;17.00;99.90;;;;;;5063771;28;20052;-42
2023/05/04 10:39:57;;;;;;;9.38;5.28;;;17.20;99.90;;;;;;5093855;28;20098;-42
2023/05/04 10:42:22;;;;;;;12.88;6.38;;;17.30;99.90;;;;;;5094240;28;20126;-39
2023/05/04 10:44:53;;;;;;;11.30;6.10;;;17.40;99.90;;;;;;5093962;28;20374;-36
2023/05/04 10:47:31;;;;;;;7.05;6.22;;;17.40;99.90;;;;;;5094373;28;20083;-39
2023/05/04 10:50:11;;;;;;;12.85;6.00;;;17.40;99.90;;;;;;5093899;28;20078;-38
2023/05/04 10:52:46;;;;;;;10.40;6.00;;;17.40;99.90;;;;;;5081129;28;20061;-43
2023/05/04 10:55:13;;;;;;;8.23;5.43;;;17.40;99.90;;;;;;5094818;28;20040;-36
2023/05/04 10:57:48;;;;;;;9.40;5.97;;;17.30;99.90;;;;;;5095467;28;20097;-38
2023/05/04 11:00:14;;;;;;;9.82;6.57;;;17.20;99.90;;;;;;5095018;28;20050;-41
2023/05/04 11:02:40;;;;;;;10.20;5.00;;;17.10;99.90;;;;;;5095925;28;20443;-40
2023/05/04 11:05:07;;;;;;;11.48;6.30;;;17.10;99.90;;;;;;5095193;28;20048;-40
2023/05/04 11:07:37;;;;;;;9.35;5.72;;;17.20;99.90;;;;;;5098046;28;20488;-36
2023/05/04 11:10:08;;;;;;;7.88;5.90;;;17.20;99.90;;;;;;5099565;28;20577;-36
2023/05/04 11:12:36;;;;;;;6.60;5.38;;;17.20;99.90;;;;;;5099498;28;20468;-40
2023/05/04 11:15:06;;;;;;;11.23;5.35;;;17.20;99.90;;;;;;5099912;28;20101;-37
2023/05/04 11:17:32;;;;;;;10.48;5.80;;;17.30;99.90;;;;;;5100448;28;20097;-37
2023/05/04 11:19:59;;;;;;;13.52;5.95;;;17.50;99.90;;;;;;5099549;28;20035;-36
2023/05/04 11:22:26;;;;;;;9.32;5.65;;;17.60;99.90;;;;;;5098517;28;20083;-36
2023/05/04 11:24:51;;;;;;;7.30;5.03;;;17.50;99.90;;;;;;5114589;27;20614;-41
2023/05/04 11:27:22;;;;;;;6.45;5.13;;;17.70;99.90;;;;;;5099976;28;20576;-41
2023/05/04 11:29:56;;;;;;;10.20;5.50;;;17.80;99.90;;;;;;5099755;28;20113;-39
2023/05/04 11:32:22;;;;;;;8.88;5.90;;;17.90;99.90;;;;;;5099403;28;20523;-35
2023/05/04 11:34:48;;;;;;;10.68;5.90;;;17.90;99.90;;;;;;5098818;28;20050;-37
2023/05/04 11:37:14;;;;;;;12.48;6.20;;;17.90;99.90;;;;;;5099253;28;20040;-38
2023/05/04 11:39:39;;;;;;;9.57;5.57;;;17.80;99.90;;;;;;5099568;28;20587;-38
2023/05/04 11:42:08;;;;;;;8.95;6.25;;;17.90;99.90;;;;;;5100195;28;20119;-42
2023/05/04 11:44:36;;;;;;;9.35;5.30;;;17.90;99.90;;;;;;5099422;28;20570;-39
2023/05/04 11:47:02;;;;;;;8.77;5.25;;;18.00;99.90;;;;;;5099794;28;20388;-35
2023/05/04 11:49:29;;;;;;;8.05;5.10;;;18.00;99.90;;;;;;5081288;28;20125;-38
2023/05/04 11:52:09;;;;;;;12.13;5.70;;;18.20;99.90;;;;;;5097787;28;20771;-39
2023/05/04 11:54:35;;;;;;;6.80;5.05;;;18.40;99.90;;;;;;5097402;28;20051;-38
2023/05/04 11:57:02;;;;;;;6.53;4.97;;;18.50;99.90;;;;;;5098108;28;20074;-40
2023/05/04 11:59:29;;;;;;;10.43;5.50;;;18.50;99.90;;;;;;5113285;27;20047;-37
2023/05/04 12:01:56;;;;;;;9.07;5.53;;;18.50;99.90;;;;;;5098208;28;20981;-41
2023/05/04 12:04:22;;;;;;;11.27;4.18;;;18.40;99.60;;;;;;5097932;28;20520;-36
2023/05/04 12:06:48;;;;;;;8.60;3.97;;;18.40;97.70;;;;;;5096991;28;20043;-35
2023/05/04 12:09:15;;;;;;;8.93;4.28;;;18.40;98.30;;;;;;5095499;28;20027;-38
2023/05/04 12:11:41;;;;;;;7.60;5.53;;;18.60;98.70;;;;;;5097577;28;20047;-39
2023/05/04 12:14:15;;;;;;;5.47;4.93;;;18.70;99.20;;;;;;5078989;28;20040;-38
2023/05/04 12:16:53;;;;;;;5.57;4.45;;;18.80;99.90;;;;;;5096840;28;20051;-41
2023/05/04 12:19:19;;;;;;;5.85;3.47;;;18.80;97.70;;;;;;5112004;27;20627;-39
2023/05/04 12:21:52;;;;;;;9.63;5.72;;;19.00;98.70;;;;;;5097740;28;20043;-35
2023/05/04 12:24:22;;;;;;;11.10;5.75;;;19.10;98.70;;;;;;5097981;28;20039;-36
2023/05/04 12:26:49;;;;;;;7.53;4.63;;;19.00;99.20;;;;;;5097970;28;20148;-36
2023/05/04 12:29:14;;;;;;;9.63;5.13;;;19.00;99.30;;;;;;5097486;28;20036;-43
2023/05/04 12:31:40;;;;;;;10.43;4.90;;;18.80;97.40;;;;;;5090342;28;20113;-44
2023/05/04 12:34:06;;;;;;;5.88;4.30;;;18.90;97.80;;;;;;5093246;28;20043;-43
2023/05/04 12:36:31;;;;;;;7.50;4.55;;;18.90;97.50;;;;;;5079531;28;20132;-36
2023/05/04 12:38:57;;;;;;;8.18;5.32;;;18.90;97.40;;;;;;5084662;28;20413;-39
2023/05/04 12:41:23;;;;;;;7.40;5.10;;;18.80;98.00;;;;;;5079411;28;20042;-36
2023/05/04 12:43:49;;;;;;;7.10;4.80;;;18.80;98.40;;;;;;5095984;28;20122;-42